Time;durP1;ratioP1;P1;durP2;ratioP2;P2;SDS_P1;SDS_P2;PMS_P1;PMS_P2;Temp;Humidity;BMP_temperature;BMP_pressure;BME280_temperature;BME280_humidity;BME280_pressure;Samples;Min_cycle;Max_cycle;Signal;HPM_P1;HPM_P2
2022/04/23 00:01:44;;;;;;;5.72;5.53;;;;;;;10.44;94.87;99850.03;5040489;28;20058;-62
2022/04/23 00:04:11;;;;;;;5.93;5.72;;;;;;;10.37;95.30;99843.88;5047790;28;20048;-62
2022/04/23 00:06:37;;;;;;;6.20;5.90;;;;;;;10.46;93.85;99840.06;5053794;28;20476;-62
2022/04/23 00:09:03;;;;;;;6.13;5.88;;;;;;;10.32;95.25;99848.91;5053966;28;20025;-61
2022/04/23 00:11:29;;;;;;;5.88;5.68;;;;;;;10.46;93.31;99834.75;5052786;28;20549;-62
2022/04/23 00:13:58;;;;;;;6.20;5.90;;;;;;;10.28;95.06;99831.72;5049316;28;20431;-61
2022/04/23 00:16:24;;;;;;;6.28;5.97;;;;;;;10.24;95.46;99841.91;5047635;28;20045;-59
2022/04/23 00:18:50;;;;;;;6.20;5.90;;;;;;;10.20;95.71;99836.09;5047502;28;20480;-62
2022/04/23 00:21:18;;;;;;;6.57;6.28;;;;;;;10.20;95.47;99837.94;5053457;28;20017;-62
2022/04/23 00:23:45;;;;;;;5.97;5.78;;;;;;;10.13;95.87;99837.06;5053486;28;20041;-61
2022/04/23 00:26:11;;;;;;;6.20;5.95;;;;;;;10.08;95.88;99840.28;5053127;28;20040;-61
2022/04/23 00:28:36;;;;;;;6.10;5.90;;;;;;;10.01;95.82;99836.75;5056352;28;20021;-61
2022/04/23 00:31:02;;;;;;;6.22;5.93;;;;;;;9.95;96.71;99837.50;5049654;28;20048;-62
2022/04/23 00:33:27;;;;;;;6.03;5.80;;;;;;;10.00;95.64;99831.63;5058145;28;20431;-61
2022/04/23 00:35:53;;;;;;;6.10;5.90;;;;;;;10.00;95.75;99818.38;5044399;28;20491;-62
2022/04/23 00:38:18;;;;;;;5.90;5.70;;;;;;;9.92;96.34;99835.22;5051270;28;20473;-61
2022/04/23 00:40:44;;;;;;;6.32;6.03;;;;;;;9.95;95.40;99835.66;5052740;28;20032;-62
2022/04/23 00:43:25;;;;;;;5.88;5.68;;;;;;;10.05;94.62;99829.22;5047235;28;20025;-62
2022/04/23 00:45:50;;;;;;;6.22;5.95;;;;;;;9.95;95.57;99829.53;5042672;28;20144;-63
2022/04/23 00:48:16;;;;;;;6.45;6.15;;;;;;;9.80;96.37;99821.63;5049255;28;20045;-62
2022/04/23 00:50:42;;;;;;;5.90;5.70;;;;;;;9.72;97.29;99819.09;5052816;28;20033;-63
2022/04/23 00:53:09;;;;;;;6.10;5.82;;;;;;;9.71;97.40;99827.25;5052664;28;20024;-62
2022/04/23 00:55:36;;;;;;;6.50;6.20;;;;;;;9.63;97.65;99815.75;5051208;28;20033;-62
2022/04/23 00:58:02;;;;;;;6.47;6.18;;;;;;;9.64;97.32;99814.75;5038801;28;20561;-63
2022/04/23 01:00:28;;;;;;;6.00;5.80;;;;;;;9.66;97.10;99815.38;5046697;28;20726;-62
2022/04/23 01:02:54;;;;;;;6.38;6.07;;;;;;;9.70;97.03;99818.47;5042658;28;20419;-60
2022/04/23 01:05:23;;;;;;;6.05;5.78;;;;;;;9.64;96.92;99814.75;5050138;28;20021;-62
2022/04/23 01:07:51;;;;;;;5.97;5.78;;;;;;;9.63;96.87;99815.75;5052533;28;20127;-62
2022/04/23 01:10:17;;;;;;;6.30;6.00;;;;;;;9.64;96.86;99809.44;5050666;28;20052;-62
2022/04/23 01:12:45;;;;;;;6.07;5.80;;;;;;;9.53;98.24;99820.50;5046223;28;20100;-62
2022/04/23 01:15:13;;;;;;;6.10;5.80;;;;;;;9.57;97.00;99800.59;5052356;28;20108;-61
2022/04/23 01:17:42;;;;;;;6.10;5.85;;;;;;;9.44;97.82;99813.66;5052544;28;20472;-61
2022/04/23 01:20:12;;;;;;;5.70;5.50;;;;;;;9.18;100.00;99816.81;5051317;28;20503;-62
2022/04/23 01:22:39;;;;;;;6.15;5.90;;;;;;;8.93;100.00;99805.66;5052410;28;20431;-62
2022/04/23 01:25:06;;;;;;;6.47;6.18;;;;;;;8.80;100.00;99802.81;5046112;28;20555;-62
2022/04/23 01:27:34;;;;;;;6.15;5.85;;;;;;;8.59;100.00;99814.06;5048644;28;20032;-61
2022/04/23 01:30:03;;;;;;;5.70;5.50;;;;;;;8.46;100.00;99796.22;5052140;28;20016;-62
2022/04/23 01:32:28;;;;;;;6.13;5.90;;;;;;;8.35;100.00;99798.41;5052421;28;20114;-62
2022/04/23 01:34:54;;;;;;;6.43;6.13;;;;;;;8.24;100.00;99802.31;5051773;28;20024;-61
2022/04/23 01:37:20;;;;;;;6.30;6.00;;;;;;;8.16;100.00;99800.56;5050861;28;20051;-62
2022/04/23 01:39:48;;;;;;;6.05;5.82;;;;;;;8.17;100.00;99785.53;5047914;28;20099;-62
2022/04/23 01:42:17;;;;;;;6.30;6.00;;;;;;;8.10;100.00;99792.50;5040145;28;20610;-60
2022/04/23 01:44:45;;;;;;;6.20;5.90;;;;;;;8.16;100.00;99805.00;5052029;28;20033;-61
2022/04/23 01:47:10;;;;;;;6.30;6.00;;;;;;;8.08;100.00;99802.41;5051817;28;20021;-61
2022/04/23 01:49:36;;;;;;;6.32;6.03;;;;;;;8.08;100.00;99795.34;5051460;28;20076;-61
2022/04/23 01:52:01;;;;;;;6.70;6.40;;;;;;;7.99;100.00;99793.72;5048602;28;20147;-63
2022/04/23 01:54:27;;;;;;;6.30;6.00;;;;;;;8.00;100.00;99792.72;5045045;28;20400;-63
2022/04/23 01:56:56;;;;;;;6.20;5.90;;;;;;;8.00;100.00;99785.63;5051387;28;20045;-62
2022/04/23 01:59:21;;;;;;;6.00;5.80;;;;;;;7.97;100.00;99790.44;5051620;28;20106;-63
2022/04/23 02:01:48;;;;;;;6.22;5.93;;;;;;;7.94;100.00;99790.81;5051595;28;20072;-62
2022/04/23 02:04:14;;;;;;;5.85;5.65;;;;;;;7.89;100.00;99779.94;5051587;28;20029;-62
2022/04/23 02:06:40;;;;;;;6.00;5.80;;;;;;;7.82;100.00;99794.84;5044642;28;20022;-62
2022/04/23 02:09:05;;;;;;;6.20;5.90;;;;;;;7.79;100.00;99782.81;5036340;28;20341;-62
2022/04/23 02:11:31;;;;;;;6.60;6.30;;;;;;;7.77;100.00;99782.16;5046553;28;20108;-62
2022/04/23 02:13:57;;;;;;;6.20;5.90;;;;;;;7.74;100.00;99782.50;5051556;28;20028;-62
2022/04/23 02:16:22;;;;;;;5.90;5.70;;;;;;;7.69;100.00;99790.94;5051652;28;20029;-62
2022/04/23 02:18:48;;;;;;;5.93;5.72;;;;;;;7.69;100.00;99777.75;5051281;28;20025;-61
2022/04/23 02:21:13;;;;;;;6.10;5.80;;;;;;;7.54;100.00;99752.28;5040594;28;20057;-62
2022/04/23 02:23:39;;;;;;;6.13;5.88;;;;;;;7.59;100.00;99786.91;5035754;28;20051;-61
2022/04/23 02:26:05;;;;;;;6.20;5.90;;;;;;;7.52;100.00;99768.28;5051637;28;20071;-62
2022/04/23 02:28:31;;;;;;;6.32;6.03;;;;;;;7.50;100.00;99766.81;5050528;28;20022;-62
2022/04/23 02:30:57;;;;;;;6.25;5.95;;;;;;;7.45;100.00;99767.34;5051533;28;20033;-62
2022/04/23 02:33:23;;;;;;;6.35;6.05;;;;;;;7.47;100.00;99778.53;5056946;28;20039;-62
2022/04/23 02:35:50;;;;;;;6.18;5.88;;;;;;;7.44;100.00;99782.34;5047271;28;20025;-62
2022/04/23 02:38:17;;;;;;;6.10;5.80;;;;;;;7.44;100.00;99766.50;5052839;28;20024;-61
2022/04/23 02:40:43;;;;;;;5.93;5.72;;;;;;;7.42;100.00;99768.50;5055164;28;20029;-62
2022/04/23 02:43:12;;;;;;;5.85;5.65;;;;;;;7.39;100.00;99773.28;5055078;28;20024;-61
2022/04/23 02:45:38;;;;;;;5.80;5.60;;;;;;;7.38;100.00;99759.28;5054326;28;20033;-61
2022/04/23 02:48:04;;;;;;;6.30;6.00;;;;;;;7.34;100.00;99765.06;5053125;28;20063;-63
2022/04/23 02:50:33;;;;;;;6.13;5.82;;;;;;;7.33;100.00;99777.44;5041430;28;20033;-62
2022/04/23 02:52:59;;;;;;;5.80;5.60;;;;;;;7.21;100.00;99757.72;5049402;28;20045;-62
2022/04/23 02:55:26;;;;;;;6.18;5.88;;;;;;;7.34;100.00;99773.81;5054979;28;20029;-62
2022/04/23 02:57:52;;;;;;;5.75;5.55;;;;;;;7.28;100.00;99774.50;5054769;28;20065;-62
2022/04/23 03:00:19;;;;;;;5.60;5.40;;;;;;;7.33;100.00;99766.06;5054804;28;20021;-62
2022/04/23 03:02:47;;;;;;;6.10;5.80;;;;;;;7.30;100.00;99763.78;5052630;28;20056;-62
2022/04/23 03:05:16;;;;;;;6.03;5.75;;;;;;;7.28;100.00;99769.25;5048343;28;20075;-62
2022/04/23 03:07:42;;;;;;;5.78;5.57;;;;;;;7.27;100.00;99762.31;5052509;28;20473;-62
2022/04/23 03:10:10;;;;;;;6.32;6.03;;;;;;;7.23;100.00;99768.09;5054548;28;20102;-62
2022/04/23 03:12:36;;;;;;;5.70;5.50;;;;;;;7.26;100.00;99770.38;5054648;28;20032;-61
2022/04/23 03:15:03;;;;;;;6.05;5.78;;;;;;;7.24;100.00;99773.19;5054681;28;20021;-61
2022/04/23 03:17:30;;;;;;;6.53;6.22;;;;;;;7.28;100.00;99776.34;5054762;28;20033;-61
2022/04/23 03:19:57;;;;;;;6.32;6.03;;;;;;;7.19;100.00;99773.69;5047507;28;20047;-63
2022/04/23 03:22:22;;;;;;;5.90;5.70;;;;;;;7.27;100.00;99772.88;5024739;28;20030;-62
2022/04/23 03:24:48;;;;;;;5.72;5.53;;;;;;;7.30;100.00;99785.72;5054438;28;20025;-62
2022/04/23 03:27:13;;;;;;;5.88;5.68;;;;;;;7.35;100.00;99767.56;5054439;28;20546;-62
2022/04/23 03:29:39;;;;;;;5.80;5.60;;;;;;;7.45;100.00;99775.25;5054250;28;20112;-61
2022/04/23 03:32:05;;;;;;;6.20;5.90;;;;;;;7.45;100.00;99777.88;5054265;28;20460;-61
2022/04/23 03:34:31;;;;;;;6.20;5.90;;;;;;;7.41;100.00;99764.19;5050244;28;20126;-62
2022/04/23 03:36:57;;;;;;;5.72;5.53;;;;;;;7.44;100.00;99771.78;5049588;28;20041;-61
2022/04/23 03:39:22;;;;;;;5.88;5.68;;;;;;;7.46;100.00;99769.78;5044430;28;20022;-62
2022/04/23 03:41:48;;;;;;;5.68;5.47;;;;;;;7.67;100.00;99768.38;5042671;28;20048;-62
2022/04/23 03:44:13;;;;;;;5.68;5.47;;;;;;;7.68;100.00;99772.66;5053559;28;20430;-62
2022/04/23 03:46:39;;;;;;;5.90;5.70;;;;;;;7.91;100.00;99773.47;5040572;28;20033;-62
2022/04/23 03:49:05;;;;;;;6.05;5.82;;;;;;;8.19;100.00;99765.84;5046299;28;20025;-62
2022/04/23 03:51:30;;;;;;;5.70;5.50;;;;;;;8.50;97.46;99760.47;5054107;28;20025;-62
2022/04/23 03:53:56;;;;;;;6.18;5.88;;;;;;;8.68;96.61;99762.78;5053225;28;20082;-61
2022/04/23 03:56:22;;;;;;;6.18;5.88;;;;;;;8.88;94.65;99784.22;5053908;28;20416;-62
2022/04/23 03:58:48;;;;;;;5.97;5.78;;;;;;;8.95;95.16;99774.53;5051886;28;20075;-61
2022/04/23 04:01:14;;;;;;;6.15;5.90;;;;;;;9.45;91.48;99762.34;5040586;28;20083;-62
2022/04/23 04:03:39;;;;;;;6.15;5.88;;;;;;;10.32;87.54;99772.84;5051303;28;20029;-62
2022/04/23 04:06:05;;;;;;;6.40;6.10;;;;;;;9.95;88.38;99771.25;5053697;28;20032;-61
2022/04/23 04:08:30;;;;;;;6.32;6.03;;;;;;;10.11;87.24;99775.47;5052174;28;20020;-61
2022/04/23 04:10:55;;;;;;;6.43;6.13;;;;;;;10.19;85.72;99772.69;5052624;28;20033;-61
2022/04/23 04:13:21;;;;;;;6.40;6.10;;;;;;;11.05;82.90;99757.41;5053782;28;20529;-62
2022/04/23 04:15:47;;;;;;;6.25;6.00;;;;;;;10.81;83.46;99765.88;5049435;28;20608;-62
2022/04/23 04:18:13;;;;;;;6.40;6.10;;;;;;;11.19;81.84;99759.13;5046054;28;20399;-61
2022/04/23 04:20:40;;;;;;;6.40;6.10;;;;;;;11.20;79.57;99747.47;5053548;28;20029;-62
2022/04/23 04:23:08;;;;;;;6.30;6.00;;;;;;;12.06;75.51;99755.72;5053396;28;20142;-62
2022/04/23 04:25:35;;;;;;;6.47;6.18;;;;;;;12.62;73.68;99757.13;5049155;28;20408;-63
2022/04/23 04:28:01;;;;;;;6.55;6.25;;;;;;;11.85;77.56;99737.28;5052682;28;20103;-62
2022/04/23 04:30:27;;;;;;;6.50;6.20;;;;;;;12.61;76.00;99742.19;5039525;28;20025;-62
2022/04/23 04:32:52;;;;;;;6.55;6.25;;;;;;;12.02;76.65;99737.72;5049699;28;20066;-62
2022/04/23 04:35:18;;;;;;;6.30;6.05;;;;;;;12.48;73.29;99732.38;5040448;28;20025;-62
2022/04/23 04:37:44;;;;;;;6.40;6.10;;;;;;;13.93;68.88;99741.69;5053306;28;20021;-62
2022/04/23 04:40:11;;;;;;;6.57;6.28;;;;;;;13.66;67.95;99751.72;5053273;28;20035;-62
2022/04/23 04:42:36;;;;;;;6.75;6.45;;;;;;;13.23;69.15;99735.53;5039076;28;20119;-63
2022/04/23 04:45:03;;;;;;;7.00;6.70;;;;;;;13.61;69.72;99753.38;5033320;28;20021;-62
2022/04/23 04:47:28;;;;;;;6.55;6.25;;;;;;;13.95;66.04;99768.94;5045796;28;20029;-61
2022/04/23 04:49:54;;;;;;;6.70;6.40;;;;;;;13.57;68.75;99736.16;5052544;28;20044;-62
2022/04/23 04:52:20;;;;;;;7.10;6.80;;;;;;;13.69;66.94;99743.28;5052698;28;20028;-62
2022/04/23 04:54:45;;;;;;;6.70;6.40;;;;;;;15.06;63.34;99735.38;5052573;28;20031;-62
2022/04/23 04:57:11;;;;;;;6.95;6.65;;;;;;;15.68;61.12;99739.50;5049083;28;20136;-63
2022/04/23 04:59:37;;;;;;;6.80;6.50;;;;;;;14.25;65.77;99745.16;5045683;28;20017;-62
2022/04/23 05:02:03;;;;;;;6.57;6.28;;;;;;;15.44;60.69;99738.59;5039142;28;20366;-62
2022/04/23 05:04:29;;;;;;;6.90;6.60;;;;;;;14.79;62.40;99746.31;5052734;28;20044;-62
2022/04/23 05:06:54;;;;;;;6.80;6.50;;;;;;;15.66;61.15;99743.47;5052349;28;20037;-63
2022/04/23 05:09:21;;;;;;;6.88;6.57;;;;;;;14.68;63.34;99735.53;5052381;28;20036;-62
2022/04/23 05:11:46;;;;;;;6.68;6.38;;;;;;;13.39;68.06;99729.69;5051150;28;20074;-63
2022/04/23 05:14:12;;;;;;;6.70;6.40;;;;;;;15.42;60.65;99731.81;5048509;28;20048;-64
2022/04/23 05:16:37;;;;;;;6.93;6.63;;;;;;;13.99;67.75;99726.69;5052007;28;20021;-62
2022/04/23 05:19:03;;;;;;;6.95;6.65;;;;;;;13.97;65.59;99732.22;5051331;28;20029;-61
2022/04/23 05:21:29;;;;;;;6.93;6.63;;;;;;;15.09;62.72;99734.91;5052336;28;20116;-64
2022/04/23 05:23:54;;;;;;;6.85;6.55;;;;;;;17.03;58.16;99719.97;5038626;28;20047;-63
2022/04/23 05:26:20;;;;;;;7.00;6.70;;;;;;;15.53;61.08;99715.03;5041625;28;20032;-62
2022/04/23 05:28:45;;;;;;;6.80;6.50;;;;;;;15.73;59.56;99720.13;5050965;28;20395;-63
2022/04/23 05:31:11;;;;;;;6.78;6.47;;;;;;;15.68;60.98;99720.81;5051940;28;20028;-63
2022/04/23 05:33:36;;;;;;;7.00;6.70;;;;;;;16.33;58.80;99727.22;5058737;28;20036;-62
2022/04/23 05:36:06;;;;;;;6.70;6.40;;;;;;;17.52;54.84;99715.03;5051074;28;20100;-62
2022/04/23 05:38:34;;;;;;;6.80;6.50;;;;;;;17.90;52.25;99713.59;5038438;28;20056;-63
2022/04/23 05:41:00;;;;;;;7.07;6.78;;;;;;;16.67;54.88;99713.03;5044568;28;20017;-63
2022/04/23 05:43:25;;;;;;;7.30;7.00;;;;;;;16.80;54.70;99715.47;5050441;28;20035;-62
2022/04/23 05:45:51;;;;;;;7.03;6.72;;;;;;;16.87;55.05;99711.84;5051915;28;20067;-63
2022/04/23 05:48:17;;;;;;;7.05;6.75;;;;;;;18.79;49.76;99719.00;5051415;28;20051;-64
2022/04/23 05:50:42;;;;;;;6.90;6.60;;;;;;;19.87;46.78;99701.16;5046696;28;20401;-63
2022/04/23 05:53:08;;;;;;;7.00;6.70;;;;;;;19.69;47.72;99698.03;5048383;28;20070;-63
2022/04/23 05:55:34;;;;;;;7.00;6.70;;;;;;;18.28;50.13;99690.56;5043032;28;20029;-63
2022/04/23 05:58:00;;;;;;;6.93;6.63;;;;;;;17.05;52.16;99707.16;5051426;28;20037;-62
2022/04/23 06:00:26;;;;;;;6.95;6.65;;;;;;;17.62;52.20;99714.41;5051997;28;20025;-62
2022/04/23 06:02:51;;;;;;;7.00;6.70;;;;;;;20.66;45.20;99697.72;5051733;28;20025;-62
2022/04/23 06:05:16;;;;;;;6.95;6.65;;;;;;;20.46;44.64;99704.88;5051439;28;20029;-63
2022/04/23 06:07:42;;;;;;;7.18;6.88;;;;;;;18.03;50.26;99697.19;5047381;28;20021;-63
2022/04/23 06:10:08;;;;;;;7.00;6.70;;;;;;;20.79;43.38;99699.16;5050415;28;20033;-62
2022/04/23 06:12:35;;;;;;;7.03;6.72;;;;;;;20.82;42.88;99697.81;5055061;28;20044;-61
2022/04/23 06:15:00;;;;;;;7.00;6.70;;;;;;;19.54;45.92;99694.09;5058080;28;20024;-62
2022/04/23 06:17:28;;;;;;;7.10;6.80;;;;;;;23.29;38.09;99702.75;5058265;28;20025;-63
2022/04/23 06:19:55;;;;;;;7.03;6.72;;;;;;;23.73;34.92;99699.25;5056596;28;20033;-62
2022/04/23 06:22:22;;;;;;;7.00;6.70;;;;;;;22.29;36.55;99702.75;5056645;28;20074;-62
2022/04/23 06:24:48;;;;;;;6.80;6.50;;;;;;;21.85;37.59;99694.34;5052124;28;20025;-63
2022/04/23 06:27:13;;;;;;;7.00;6.70;;;;;;;22.31;36.96;99689.75;5057988;28;20490;-62
2022/04/23 06:29:39;;;;;;;6.90;6.60;;;;;;;21.64;38.44;99677.31;5057705;28;20108;-62
2022/04/23 06:32:05;;;;;;;7.00;6.70;;;;;;;22.00;37.92;99678.94;5058018;28;20024;-62
2022/04/23 06:34:31;;;;;;;7.10;6.80;;;;;;;21.06;39.78;99680.09;5050789;28;20495;-62
2022/04/23 06:36:56;;;;;;;7.07;6.78;;;;;;;22.66;37.25;99680.78;5056112;28;20107;-63
2022/04/23 06:39:22;;;;;;;7.10;6.80;;;;;;;22.63;36.71;99685.94;5050858;28;20102;-61
2022/04/23 06:41:47;;;;;;;6.90;6.60;;;;;;;22.68;36.42;99689.41;5057098;28;20033;-61
2022/04/23 06:44:13;;;;;;;7.00;6.70;;;;;;;22.61;36.67;99697.00;5057678;28;20722;-62
2022/04/23 06:46:38;;;;;;;6.80;6.50;;;;;;;22.76;36.43;99688.03;5057337;28;20043;-63
2022/04/23 06:49:07;;;;;;;6.90;6.60;;;;;;;21.48;37.96;99669.19;5057880;28;20567;-62
2022/04/23 06:51:33;;;;;;;7.10;6.80;;;;;;;23.14;35.52;99689.28;5048735;28;20423;-62
2022/04/23 06:53:59;;;;;;;6.95;6.65;;;;;;;22.39;36.84;99678.41;5057470;28;20030;-63
2022/04/23 06:56:25;;;;;;;6.97;6.68;;;;;;;22.31;37.25;99666.25;5057575;28;20106;-63
2022/04/23 06:58:51;;;;;;;6.90;6.60;;;;;;;22.25;37.37;99664.63;5056566;28;20025;-62
2022/04/23 07:01:17;;;;;;;6.88;6.57;;;;;;;23.40;35.11;99673.72;5058120;28;20029;-62
2022/04/23 07:03:42;;;;;;;6.95;6.65;;;;;;;24.08;34.36;99673.75;5055711;28;20063;-62
2022/04/23 07:06:08;;;;;;;7.10;6.80;;;;;;;23.27;35.14;99663.50;5054556;28;20116;-62
2022/04/23 07:08:33;;;;;;;6.90;6.60;;;;;;;23.57;34.66;99663.31;5057801;28;20507;-62
2022/04/23 07:10:59;;;;;;;6.97;6.68;;;;;;;24.18;33.52;99660.13;5057207;28;20499;-62
2022/04/23 07:13:28;;;;;;;7.05;6.75;;;;;;;23.47;35.12;99657.97;5057956;28;20545;-61
2022/04/23 07:15:54;;;;;;;7.00;6.70;;;;;;;24.27;33.37;99679.28;5056832;28;20454;-61
2022/04/23 07:18:19;;;;;;;6.90;6.60;;;;;;;23.16;34.56;99668.16;5056317;28;20013;-62
2022/04/23 07:20:45;;;;;;;7.10;6.80;;;;;;;24.33;33.39;99664.63;5062508;28;20021;-61
2022/04/23 07:25:54;;;;;;;7.00;6.70;;;;;;;23.90;33.79;99641.97;5054681;28;20063;-61
2022/04/23 07:28:23;;;;;;;6.70;6.40;;;;;;;24.58;32.59;99633.72;5054255;28;20476;-62
2022/04/23 07:30:48;;;;;;;6.90;6.60;;;;;;;23.22;35.28;99629.19;5047947;28;20078;-61
2022/04/23 07:37:28;;;;;;;6.97;6.68;;;;;;;22.04;37.04;99617.13;5051708;28;20049;-62
2022/04/23 07:38:43;;;;;;;6.70;6.40;;;;;;;25.16;31.71;99616.47;5054449;28;20052;-63
2022/04/23 07:41:09;;;;;;;7.10;6.80;;;;;;;23.65;34.00;99616.72;5040655;28;20424;-63
2022/04/23 07:43:35;;;;;;;6.97;6.68;;;;;;;23.97;34.05;99629.72;5054240;28;20048;-64
2022/04/23 07:46:00;;;;;;;7.10;6.80;;;;;;;23.74;34.18;99619.63;5051060;28;20095;-62
2022/04/23 07:48:26;;;;;;;6.75;6.45;;;;;;;26.05;30.96;99619.94;5035660;28;20025;-63
2022/04/23 07:50:52;;;;;;;7.00;6.70;;;;;;;25.19;31.85;99626.72;5051714;28;20020;-62
2022/04/23 07:53:17;;;;;;;7.00;6.70;;;;;;;26.04;30.64;99633.84;5053793;28;20020;-63
2022/04/23 07:55:43;;;;;;;7.13;6.82;;;;;;;24.03;33.48;99616.94;5053744;28;20021;-62
2022/04/23 07:58:11;;;;;;;7.10;6.80;;;;;;;23.13;35.41;99617.31;5053557;28;20659;-62
2022/04/23 08:00:38;;;;;;;7.00;6.70;;;;;;;23.58;34.71;99624.34;5047629;28;20468;-63
2022/04/23 08:03:05;;;;;;;6.93;6.63;;;;;;;22.95;35.68;99626.88;5053745;28;20094;-61
2022/04/23 08:05:31;;;;;;;6.90;6.60;;;;;;;22.28;37.40;99618.19;5049993;28;20076;-62
2022/04/23 08:07:57;;;;;;;7.30;7.00;;;;;;;21.41;38.55;99616.56;5052355;28;20065;-62
2022/04/23 08:10:23;;;;;;;7.07;6.78;;;;;;;21.00;39.46;99621.84;5053418;28;20025;-63
2022/04/23 08:12:49;;;;;;;7.00;6.70;;;;;;;21.40;38.84;99615.75;5053795;28;20079;-64
2022/04/23 08:15:15;;;;;;;6.80;6.50;;;;;;;21.97;37.82;99624.69;5051190;28;20033;-63
2022/04/23 08:17:42;;;;;;;7.05;6.75;;;;;;;22.06;37.82;99633.84;5053814;28;20025;-64
2022/04/23 08:20:08;;;;;;;7.20;6.90;;;;;;;21.02;39.65;99627.78;5049918;28;20117;-63
2022/04/23 08:22:35;;;;;;;6.90;6.60;;;;;;;21.65;38.52;99627.66;5041086;28;20025;-64
2022/04/23 08:25:01;;;;;;;6.97;6.68;;;;;;;23.17;36.01;99626.50;5034187;28;20046;-64
2022/04/23 08:27:27;;;;;;;6.90;6.60;;;;;;;21.44;39.05;99616.81;5037544;28;20094;-62
2022/04/23 08:32:36;;;;;;;7.13;6.82;;;;;;;21.25;39.09;99604.91;5057462;28;20030;-63
2022/04/23 08:35:04;;;;;;;7.00;6.70;;;;;;;21.19;39.56;99620.28;5061965;28;20028;-63
2022/04/23 08:37:30;;;;;;;6.85;6.55;;;;;;;20.66;40.84;99605.28;5053338;28;20060;-64
2022/04/23 08:39:55;;;;;;;7.07;6.78;;;;;;;21.13;40.35;99607.84;5053235;28;20476;-63
2022/04/23 08:42:21;;;;;;;6.95;6.65;;;;;;;21.57;39.62;99599.31;5049679;28;20029;-62
2022/04/23 08:44:46;;;;;;;6.65;6.35;;;;;;;22.12;38.59;99600.38;5042844;28;20021;-64
2022/04/23 08:47:12;;;;;;;7.43;7.13;;;;;;;21.40;39.61;99596.06;5051833;28;20492;-65
2022/04/23 08:49:42;;;;;;;7.28;6.97;;;;;;;22.38;38.02;99601.13;5052372;28;20125;-62
2022/04/23 08:52:43;;;;;;;6.97;6.68;;;;;;;22.18;38.12;99595.75;5052892;28;20052;-63
2022/04/23 08:55:09;;;;;;;7.40;7.10;;;;;;;21.69;39.71;99597.16;5046225;28;20414;-64
2022/04/23 08:57:38;;;;;;;7.10;6.80;;;;;;;21.88;38.95;99602.78;5048066;28;20459;-64
2022/04/23 09:00:08;;;;;;;7.10;6.80;;;;;;;21.87;38.91;99600.38;5040137;28;20136;-64
2022/04/23 09:02:35;;;;;;;7.00;6.70;;;;;;;22.17;38.64;99603.06;5043488;28;20485;-62
2022/04/23 09:05:01;;;;;;;7.35;7.05;;;;;;;21.70;39.42;99589.88;5045466;28;20024;-63
2022/04/23 09:07:29;;;;;;;7.03;6.72;;;;;;;21.95;39.38;99602.53;5046157;28;20021;-63
2022/04/23 09:09:56;;;;;;;7.00;6.70;;;;;;;21.10;41.03;99599.50;5052444;28;20083;-63
2022/04/23 09:12:26;;;;;;;7.07;6.78;;;;;;;20.80;41.41;99598.34;5052425;28;20021;-63
2022/04/23 09:14:53;;;;;;;7.20;6.90;;;;;;;20.29;42.75;99608.03;5051168;28;20032;-62
2022/04/23 09:25:45;;;;;;;7.20;6.90;;;;;;;21.81;39.78;99599.56;5045574;28;20059;-63
2022/04/23 09:28:29;;;;;;;7.10;6.80;;;;;;;21.89;40.08;99588.25;5051985;28;20028;-64
2022/04/23 09:30:56;;;;;;;7.07;6.78;;;;;;;21.94;40.29;99587.41;5050636;28;20489;-63
2022/04/23 09:33:42;;;;;;;7.20;6.90;;;;;;;22.64;38.58;99585.63;5060091;28;20043;-62
2022/04/23 09:36:07;;;;;;;6.80;6.50;;;;;;;23.48;36.43;99575.66;5051926;28;20029;-63
2022/04/23 09:38:33;;;;;;;6.93;6.63;;;;;;;22.82;37.63;99574.16;5048825;28;20358;-63
2022/04/23 09:41:15;;;;;;;7.18;6.88;;;;;;;22.87;37.53;99574.19;5041742;28;20043;-63
2022/04/23 09:43:41;;;;;;;6.93;6.63;;;;;;;21.50;40.27;99588.78;5051731;28;20065;-63
2022/04/23 09:46:08;;;;;;;6.85;6.55;;;;;;;21.34;40.35;99584.44;5051936;28;20079;-62
2022/04/23 09:48:35;;;;;;;6.90;6.60;;;;;;;21.81;39.46;99594.16;5049694;28;20108;-62
2022/04/23 09:51:01;;;;;;;6.65;6.35;;;;;;;20.60;42.01;99574.00;5051049;28;20052;-64
2022/04/23 09:53:30;;;;;;;7.10;6.80;;;;;;;20.94;41.84;99591.38;5047853;28;20508;-62
2022/04/23 09:56:00;;;;;;;7.03;6.72;;;;;;;21.34;40.73;99595.25;5051824;28;20025;-62
2022/04/23 09:58:29;;;;;;;6.70;6.40;;;;;;;21.31;41.05;99595.78;5038509;28;20132;-63
2022/04/23 10:00:56;;;;;;;6.57;6.28;;;;;;;21.89;41.08;99590.13;5051639;28;20565;-64
2022/04/23 10:03:28;;;;;;;6.90;6.60;;;;;;;21.22;41.49;99587.38;5051314;28;20021;-63
2022/04/23 10:05:54;;;;;;;6.90;6.60;;;;;;;21.12;40.88;99583.84;5050578;28;20024;-63
2022/04/23 10:08:24;;;;;;;6.93;6.63;;;;;;;20.97;41.84;99585.44;5044002;28;20033;-63
2022/04/23 10:10:52;;;;;;;6.90;6.60;;;;;;;21.56;40.92;99586.91;5051584;28;20383;-62
2022/04/23 10:13:20;;;;;;;6.70;6.40;;;;;;;22.54;38.85;99577.53;5048775;28;20029;-62
2022/04/23 10:15:47;;;;;;;7.22;6.93;;;;;;;21.18;41.67;99574.69;5051109;28;20029;-63
2022/04/23 10:18:14;;;;;;;6.72;6.43;;;;;;;21.73;40.28;99581.22;5051638;28;20098;-62
2022/04/23 10:20:40;;;;;;;7.10;6.80;;;;;;;20.57;42.21;99569.97;5048874;28;20036;-61
2022/04/23 10:23:30;;;;;;;6.60;6.30;;;;;;;21.11;42.94;99571.44;5049123;28;20021;-62
2022/04/23 10:26:24;;;;;;;6.90;6.60;;;;;;;20.97;42.85;99566.56;5051617;28;20029;-62
2022/04/23 10:28:51;;;;;;;6.70;6.40;;;;;;;21.49;42.17;99572.84;5051540;28;20370;-62
2022/04/23 10:31:17;;;;;;;6.90;6.60;;;;;;;21.65;40.98;99569.06;5043953;28;20056;-62
2022/04/23 10:33:47;;;;;;;6.60;6.30;;;;;;;21.62;41.60;99564.22;5054392;28;20028;-63
2022/04/23 10:36:13;;;;;;;6.68;6.38;;;;;;;21.63;41.52;99568.53;5036837;28;20389;-62
2022/04/23 10:39:02;;;;;;;6.80;6.50;;;;;;;21.17;42.44;99559.59;5043679;28;20021;-63
2022/04/23 10:41:28;;;;;;;6.70;6.40;;;;;;;21.15;42.59;99559.03;5049762;28;20495;-63
2022/04/23 10:44:04;;;;;;;6.70;6.40;;;;;;;20.70;42.67;99561.34;5046327;28;20037;-63
2022/04/23 10:46:42;;;;;;;6.90;6.60;;;;;;;20.84;42.73;99552.78;5047305;28;20530;-63
2022/04/23 10:49:17;;;;;;;7.07;6.78;;;;;;;21.19;41.81;99558.25;5040134;28;20036;-62
2022/04/23 10:51:55;;;;;;;6.90;6.60;;;;;;;21.06;42.08;99558.75;5050937;28;20021;-63
2022/04/23 10:54:40;;;;;;;7.10;6.80;;;;;;;21.13;42.51;99562.00;5050781;28;20396;-64
2022/04/23 10:57:08;;;;;;;6.40;6.10;;;;;;;21.27;42.46;99567.69;5049657;28;20419;-63
2022/04/23 10:59:47;;;;;;;6.90;6.60;;;;;;;21.29;41.90;99570.94;5046008;28;20048;-63
2022/04/23 11:02:20;;;;;;;6.45;6.15;;;;;;;21.35;41.82;99567.19;5054978;28;20361;-62
2022/04/23 11:13:51;;;;;;;6.70;6.40;;;;;;;22.05;40.16;99559.31;5049426;28;20462;-63
2022/04/23 11:16:19;;;;;;;6.57;6.28;;;;;;;22.69;39.42;99553.13;5054650;28;20031;-63
2022/04/23 11:18:46;;;;;;;6.60;6.30;;;;;;;23.43;37.83;99557.59;5054471;28;20048;-63
2022/04/23 11:21:24;;;;;;;6.45;6.15;;;;;;;23.90;36.74;99556.09;5054653;28;20086;-63
2022/04/23 11:23:52;;;;;;;6.50;6.20;;;;;;;23.93;36.91;99557.41;5054784;28;20028;-63
2022/04/23 11:26:18;;;;;;;6.55;6.25;;;;;;;22.95;38.17;99553.84;5052701;28;20025;-62
2022/04/23 11:28:46;;;;;;;6.65;6.35;;;;;;;22.94;38.52;99546.03;5054230;28;20029;-62
2022/04/23 11:31:16;;;;;;;7.10;6.80;;;;;;;23.16;38.07;99547.22;5053141;28;20036;-61
2022/04/23 11:34:12;;;;;;;6.70;6.40;;;;;;;22.70;38.84;99553.97;5054222;28;20060;-62
2022/04/23 11:36:38;;;;;;;6.63;6.32;;;;;;;22.39;39.88;99545.97;5043183;28;20041;-64
2022/04/23 11:39:07;;;;;;;6.90;6.60;;;;;;;22.39;39.57;99548.69;5054155;28;20035;-62
2022/04/23 11:41:35;;;;;;;6.88;6.57;;;;;;;22.15;39.96;99545.81;5046572;28;20059;-62
2022/04/23 11:44:16;;;;;;;7.00;6.70;;;;;;;22.07;40.58;99546.34;5053757;28;20392;-62
2022/04/23 11:46:53;;;;;;;6.57;6.28;;;;;;;22.37;40.01;99528.44;5053977;28;20025;-64
2022/04/23 11:49:26;;;;;;;6.97;6.68;;;;;;;22.48;39.52;99527.31;5040228;28;20395;-62
2022/04/23 11:52:02;;;;;;;6.95;6.65;;;;;;;22.61;40.08;99535.59;5053939;28;20032;-63
2022/04/23 11:54:32;;;;;;;6.90;6.60;;;;;;;22.61;39.11;99526.69;5049354;28;20032;-63
2022/04/23 11:56:57;;;;;;;6.80;6.50;;;;;;;23.09;38.66;99532.41;5053428;28;20083;-63
2022/04/23 11:59:23;;;;;;;6.82;6.53;;;;;;;22.54;39.23;99521.59;5053715;28;20025;-62
2022/04/23 12:01:49;;;;;;;6.80;6.50;;;;;;;22.70;39.08;99525.03;5027402;28;20053;-64